sensor_id;sensor_type;location;lat;lon;timestamp;P1;durP1;ratioP1;P2;durP2;ratioP2
33858;SDS011;20156;47.486;12.074;2023-04-03T00:01:25;3.07;;;2.87;;
33858;SDS011;20156;47.486;12.074;2023-04-03T00:03:51;3.60;;;2.93;;
33858;SDS011;20156;47.486;12.074;2023-04-03T00:06:17;3.50;;;3.20;;
33858;SDS011;20156;47.486;12.074;2023-04-03T00:08:42;3.70;;;3.30;;
33858;SDS011;20156;47.486;12.074;2023-04-03T00:11:08;3.40;;;3.10;;
33858;SDS011;20156;47.486;12.074;2023-04-03T00:13:34;3.60;;;3.20;;
33858;SDS011;20156;47.486;12.074;2023-04-03T00:16:01;3.80;;;3.50;;
33858;SDS011;20156;47.486;12.074;2023-04-03T00:18:28;4.07;;;3.67;;
33858;SDS011;20156;47.486;12.074;2023-04-03T00:20:54;3.50;;;3.20;;
33858;SDS011;20156;47.486;12.074;2023-04-03T00:23:19;3.70;;;3.40;;
33858;SDS011;20156;47.486;12.074;2023-04-03T00:25:45;4.17;;;3.77;;
33858;SDS011;20156;47.486;12.074;2023-04-03T00:28:11;3.80;;;3.50;;
33858;SDS011;20156;47.486;12.074;2023-04-03T00:30:37;4.03;;;3.70;;
33858;SDS011;20156;47.486;12.074;2023-04-03T00:33:02;3.90;;;3.60;;
33858;SDS011;20156;47.486;12.074;2023-04-03T00:35:28;4.13;;;3.83;;
33858;SDS011;20156;47.486;12.074;2023-04-03T00:37:54;4.30;;;3.90;;
33858;SDS011;20156;47.486;12.074;2023-04-03T00:40:21;4.47;;;4.07;;
33858;SDS011;20156;47.486;12.074;2023-04-03T00:42:48;4.63;;;4.23;;
33858;SDS011;20156;47.486;12.074;2023-04-03T00:45:24;4.67;;;4.27;;
33858;SDS011;20156;47.486;12.074;2023-04-03T00:47:54;4.27;;;3.87;;
33858;SDS011;20156;47.486;12.074;2023-04-03T00:50:20;4.80;;;4.40;;
33858;SDS011;20156;47.486;12.074;2023-04-03T00:52:47;4.93;;;4.50;;
33858;SDS011;20156;47.486;12.074;2023-04-03T00:55:14;5.17;;;4.67;;
33858;SDS011;20156;47.486;12.074;2023-04-03T00:57:40;4.83;;;4.43;;
33858;SDS011;20156;47.486;12.074;2023-04-03T01:00:11;5.03;;;4.50;;
33858;SDS011;20156;47.486;12.074;2023-04-03T01:02:41;5.00;;;4.60;;
33858;SDS011;20156;47.486;12.074;2023-04-03T01:05:07;5.03;;;4.63;;
33858;SDS011;20156;47.486;12.074;2023-04-03T01:07:33;4.53;;;4.13;;
33858;SDS011;20156;47.486;12.074;2023-04-03T01:10:04;4.73;;;4.33;;
33858;SDS011;20156;47.486;12.074;2023-04-03T01:12:36;5.70;;;4.30;;
33858;SDS011;20156;47.486;12.074;2023-04-03T01:15:05;4.47;;;4.07;;
33858;SDS011;20156;47.486;12.074;2023-04-03T01:25:36;5.23;;;4.73;;
33858;SDS011;20156;47.486;12.074;2023-04-03T01:28:07;4.87;;;4.40;;
33858;SDS011;20156;47.486;12.074;2023-04-03T01:30:36;4.80;;;4.40;;
33858;SDS011;20156;47.486;12.074;2023-04-03T01:33:07;6.50;;;4.70;;
33858;SDS011;20156;47.486;12.074;2023-04-03T01:35:33;4.33;;;3.93;;
33858;SDS011;20156;47.486;12.074;2023-04-03T01:37:58;4.50;;;4.10;;
33858;SDS011;20156;47.486;12.074;2023-04-03T01:40:24;4.10;;;3.80;;
33858;SDS011;20156;47.486;12.074;2023-04-03T01:42:51;4.10;;;3.80;;
33858;SDS011;20156;47.486;12.074;2023-04-03T01:45:16;4.93;;;4.43;;
33858;SDS011;20156;47.486;12.074;2023-04-03T01:47:42;4.53;;;4.13;;
33858;SDS011;20156;47.486;12.074;2023-04-03T01:50:07;4.30;;;3.90;;
33858;SDS011;20156;47.486;12.074;2023-04-03T01:52:33;5.10;;;4.60;;
33858;SDS011;20156;47.486;12.074;2023-04-03T01:54:58;4.30;;;3.90;;
33858;SDS011;20156;47.486;12.074;2023-04-03T01:57:24;4.30;;;3.90;;
33858;SDS011;20156;47.486;12.074;2023-04-03T01:59:50;5.13;;;4.63;;
33858;SDS011;20156;47.486;12.074;2023-04-03T02:02:16;5.27;;;4.83;;
33858;SDS011;20156;47.486;12.074;2023-04-03T02:04:42;4.63;;;4.23;;
33858;SDS011;20156;47.486;12.074;2023-04-03T02:07:07;5.50;;;4.67;;
33858;SDS011;20156;47.486;12.074;2023-04-03T02:09:33;4.67;;;4.27;;
33858;SDS011;20156;47.486;12.074;2023-04-03T02:11:58;4.70;;;4.30;;
33858;SDS011;20156;47.486;12.074;2023-04-03T02:14:23;4.73;;;4.33;;
33858;SDS011;20156;47.486;12.074;2023-04-03T02:16:49;5.53;;;4.17;;
33858;SDS011;20156;47.486;12.074;2023-04-03T02:19:15;4.33;;;3.93;;
33858;SDS011;20156;47.486;12.074;2023-04-03T02:21:41;4.57;;;4.07;;
33858;SDS011;20156;47.486;12.074;2023-04-03T02:24:06;5.20;;;4.80;;
33858;SDS011;20156;47.486;12.074;2023-04-03T02:26:32;4.80;;;4.40;;
33858;SDS011;20156;47.486;12.074;2023-04-03T02:28:57;5.30;;;4.80;;
33858;SDS011;20156;47.486;12.074;2023-04-03T02:31:22;5.40;;;4.90;;
33858;SDS011;20156;47.486;12.074;2023-04-03T02:33:49;5.47;;;4.97;;
33858;SDS011;20156;47.486;12.074;2023-04-03T02:36:15;5.80;;;5.30;;
33858;SDS011;20156;47.486;12.074;2023-04-03T02:38:40;6.00;;;5.40;;
33858;SDS011;20156;47.486;12.074;2023-04-03T02:41:08;5.93;;;5.43;;
33858;SDS011;20156;47.486;12.074;2023-04-03T02:43:34;6.57;;;5.90;;
33858;SDS011;20156;47.486;12.074;2023-04-03T02:46:00;8.03;;;6.20;;
33858;SDS011;20156;47.486;12.074;2023-04-03T02:48:26;6.40;;;5.80;;
33858;SDS011;20156;47.486;12.074;2023-04-03T02:50:51;8.17;;;6.07;;
33858;SDS011;20156;47.486;12.074;2023-04-03T02:53:17;7.10;;;6.40;;
33858;SDS011;20156;47.486;12.074;2023-04-03T02:55:44;7.17;;;6.47;;
33858;SDS011;20156;47.486;12.074;2023-04-03T02:58:10;7.37;;;6.67;;
33858;SDS011;20156;47.486;12.074;2023-04-03T03:00:36;7.00;;;6.30;;
33858;SDS011;20156;47.486;12.074;2023-04-03T03:03:02;8.17;;;7.30;;
33858;SDS011;20156;47.486;12.074;2023-04-03T03:05:28;7.97;;;7.17;;
33858;SDS011;20156;47.486;12.074;2023-04-03T03:07:54;8.93;;;8.03;;
33858;SDS011;20156;47.486;12.074;2023-04-03T03:10:19;8.33;;;7.43;;
33858;SDS011;20156;47.486;12.074;2023-04-03T03:12:45;9.10;;;8.20;;
33858;SDS011;20156;47.486;12.074;2023-04-03T03:15:11;9.37;;;8.47;;
33858;SDS011;20156;47.486;12.074;2023-04-03T03:17:37;8.23;;;7.43;;
33858;SDS011;20156;47.486;12.074;2023-04-03T03:20:03;9.53;;;8.53;;
33858;SDS011;20156;47.486;12.074;2023-04-03T03:22:30;8.90;;;8.00;;
33858;SDS011;20156;47.486;12.074;2023-04-03T03:24:55;9.27;;;8.30;;
33858;SDS011;20156;47.486;12.074;2023-04-03T03:27:21;10.07;;;8.57;;
33858;SDS011;20156;47.486;12.074;2023-04-03T03:29:46;10.17;;;8.80;;
33858;SDS011;20156;47.486;12.074;2023-04-03T03:32:12;8.70;;;7.80;;
33858;SDS011;20156;47.486;12.074;2023-04-03T03:34:38;8.50;;;7.67;;
33858;SDS011;20156;47.486;12.074;2023-04-03T03:37:03;8.90;;;8.00;;
33858;SDS011;20156;47.486;12.074;2023-04-03T03:39:29;9.37;;;8.27;;
33858;SDS011;20156;47.486;12.074;2023-04-03T03:41:54;8.70;;;7.80;;
33858;SDS011;20156;47.486;12.074;2023-04-03T03:44:20;8.37;;;7.57;;
33858;SDS011;20156;47.486;12.074;2023-04-03T03:46:46;9.73;;;8.73;;
33858;SDS011;20156;47.486;12.074;2023-04-03T03:49:11;9.50;;;8.50;;
33858;SDS011;20156;47.486;12.074;2023-04-03T03:51:37;10.13;;;8.33;;
33858;SDS011;20156;47.486;12.074;2023-04-03T03:54:04;10.50;;;8.80;;
33858;SDS011;20156;47.486;12.074;2023-04-03T03:56:30;9.80;;;8.80;;
33858;SDS011;20156;47.486;12.074;2023-04-03T03:58:56;9.93;;;8.90;;
33858;SDS011;20156;47.486;12.074;2023-04-03T04:01:22;9.70;;;8.07;;
33858;SDS011;20156;47.486;12.074;2023-04-03T04:03:48;9.37;;;8.37;;
33858;SDS011;20156;47.486;12.074;2023-04-03T04:06:14;10.77;;;8.90;;
33858;SDS011;20156;47.486;12.074;2023-04-03T04:08:40;9.57;;;8.20;;
33858;SDS011;20156;47.486;12.074;2023-04-03T04:11:06;11.20;;;9.00;;
33858;SDS011;20156;47.486;12.074;2023-04-03T04:13:31;10.07;;;8.60;;
33858;SDS011;20156;47.486;12.074;2023-04-03T04:15:57;10.10;;;8.60;;
33858;SDS011;20156;47.486;12.074;2023-04-03T04:18:22;9.83;;;8.50;;
33858;SDS011;20156;47.486;12.074;2023-04-03T04:20:48;11.70;;;9.33;;
33858;SDS011;20156;47.486;12.074;2023-04-03T04:23:14;9.47;;;8.50;;
33858;SDS011;20156;47.486;12.074;2023-04-03T04:25:39;10.67;;;9.33;;
33858;SDS011;20156;47.486;12.074;2023-04-03T04:28:05;10.07;;;8.93;;
33858;SDS011;20156;47.486;12.074;2023-04-03T04:30:31;11.07;;;9.17;;
33858;SDS011;20156;47.486;12.074;2023-04-03T04:32:57;11.77;;;9.63;;
33858;SDS011;20156;47.486;12.074;2023-04-03T04:35:22;10.87;;;9.57;;
33858;SDS011;20156;47.486;12.074;2023-04-03T04:37:48;10.93;;;9.83;;
33858;SDS011;20156;47.486;12.074;2023-04-03T04:40:13;11.53;;;9.83;;
33858;SDS011;20156;47.486;12.074;2023-04-03T04:42:39;11.30;;;10.10;;
33858;SDS011;20156;47.486;12.074;2023-04-03T04:45:05;12.20;;;10.60;;
33858;SDS011;20156;47.486;12.074;2023-04-03T04:47:31;11.87;;;10.40;;
33858;SDS011;20156;47.486;12.074;2023-04-03T04:49:56;11.40;;;9.87;;
33858;SDS011;20156;47.486;12.074;2023-04-03T04:52:21;11.37;;;10.17;;
33858;SDS011;20156;47.486;12.074;2023-04-03T04:54:47;12.43;;;11.13;;
33858;SDS011;20156;47.486;12.074;2023-04-03T04:57:12;13.00;;;11.60;;
33858;SDS011;20156;47.486;12.074;2023-04-03T04:59:38;12.10;;;10.90;;
33858;SDS011;20156;47.486;12.074;2023-04-03T05:02:03;12.00;;;10.80;;
33858;SDS011;20156;47.486;12.074;2023-04-03T05:04:29;13.30;;;10.60;;
33858;SDS011;20156;47.486;12.074;2023-04-03T05:06:54;12.30;;;11.03;;
33858;SDS011;20156;47.486;12.074;2023-04-03T05:09:20;12.30;;;11.10;;
33858;SDS011;20156;47.486;12.074;2023-04-03T05:11:46;13.07;;;11.10;;
33858;SDS011;20156;47.486;12.074;2023-04-03T05:14:11;12.93;;;11.43;;
33858;SDS011;20156;47.486;12.074;2023-04-03T05:16:37;13.07;;;11.30;;
33858;SDS011;20156;47.486;12.074;2023-04-03T05:19:02;12.53;;;10.37;;
33858;SDS011;20156;47.486;12.074;2023-04-03T05:21:28;11.00;;;9.90;;
33858;SDS011;20156;47.486;12.074;2023-04-03T05:23:57;12.97;;;11.10;;
33858;SDS011;20156;47.486;12.074;2023-04-03T05:26:24;12.83;;;10.83;;
33858;SDS011;20156;47.486;12.074;2023-04-03T05:28:50;12.00;;;10.67;;
33858;SDS011;20156;47.486;12.074;2023-04-03T05:31:15;11.60;;;10.40;;
33858;SDS011;20156;47.486;12.074;2023-04-03T05:33:41;11.03;;;9.73;;
33858;SDS011;20156;47.486;12.074;2023-04-03T05:36:07;11.00;;;9.90;;
33858;SDS011;20156;47.486;12.074;2023-04-03T05:38:32;11.33;;;10.10;;
33858;SDS011;20156;47.486;12.074;2023-04-03T05:40:58;12.10;;;10.70;;
33858;SDS011;20156;47.486;12.074;2023-04-03T05:43:24;10.90;;;9.80;;
33858;SDS011;20156;47.486;12.074;2023-04-03T05:45:50;13.10;;;11.23;;
33858;SDS011;20156;47.486;12.074;2023-04-03T05:48:16;11.87;;;10.63;;
33858;SDS011;20156;47.486;12.074;2023-04-03T05:50:42;15.63;;;12.33;;
33858;SDS011;20156;47.486;12.074;2023-04-03T05:53:14;13.50;;;11.63;;
33858;SDS011;20156;47.486;12.074;2023-04-03T05:55:44;14.33;;;12.37;;
33858;SDS011;20156;47.486;12.074;2023-04-03T05:58:10;14.53;;;12.97;;
33858;SDS011;20156;47.486;12.074;2023-04-03T06:00:35;12.63;;;10.90;;
33858;SDS011;20156;47.486;12.074;2023-04-03T06:03:01;13.57;;;12.17;;
33858;SDS011;20156;47.486;12.074;2023-04-03T06:05:26;14.03;;;11.27;;
33858;SDS011;20156;47.486;12.074;2023-04-03T06:07:51;14.20;;;11.87;;
33858;SDS011;20156;47.486;12.074;2023-04-03T06:10:17;12.83;;;11.43;;
33858;SDS011;20156;47.486;12.074;2023-04-03T06:12:42;13.13;;;11.83;;
33858;SDS011;20156;47.486;12.074;2023-04-03T06:15:08;13.17;;;11.77;;
33858;SDS011;20156;47.486;12.074;2023-04-03T06:17:35;12.47;;;11.27;;
33858;SDS011;20156;47.486;12.074;2023-04-03T06:20:02;13.50;;;12.10;;
33858;SDS011;20156;47.486;12.074;2023-04-03T06:22:28;13.93;;;12.00;;
33858;SDS011;20156;47.486;12.074;2023-04-03T06:24:55;13.03;;;11.63;;
33858;SDS011;20156;47.486;12.074;2023-04-03T06:27:20;13.67;;;12.23;;
33858;SDS011;20156;47.486;12.074;2023-04-03T06:29:46;12.70;;;11.33;;
33858;SDS011;20156;47.486;12.074;2023-04-03T06:32:12;17.60;;;13.13;;
33858;SDS011;20156;47.486;12.074;2023-04-03T06:34:37;13.40;;;11.97;;
33858;SDS011;20156;47.486;12.074;2023-04-03T06:37:03;14.37;;;11.37;;
33858;SDS011;20156;47.486;12.074;2023-04-03T06:39:28;13.13;;;11.83;;
33858;SDS011;20156;47.486;12.074;2023-04-03T06:41:54;12.40;;;10.90;;
33858;SDS011;20156;47.486;12.074;2023-04-03T06:44:20;13.67;;;11.70;;
33858;SDS011;20156;47.486;12.074;2023-04-03T06:46:45;12.03;;;10.83;;
33858;SDS011;20156;47.486;12.074;2023-04-03T06:49:12;10.90;;;9.80;;
33858;SDS011;20156;47.486;12.074;2023-04-03T06:51:37;11.63;;;10.17;;
33858;SDS011;20156;47.486;12.074;2023-04-03T06:54:03;11.07;;;9.90;;
33858;SDS011;20156;47.486;12.074;2023-04-03T06:56:30;11.33;;;10.20;;
33858;SDS011;20156;47.486;12.074;2023-04-03T06:58:56;11.27;;;10.07;;
33858;SDS011;20156;47.486;12.074;2023-04-03T07:01:26;10.70;;;9.70;;
33858;SDS011;20156;47.486;12.074;2023-04-03T07:03:52;10.53;;;9.43;;
33858;SDS011;20156;47.486;12.074;2023-04-03T07:06:18;10.33;;;9.30;;
33858;SDS011;20156;47.486;12.074;2023-04-03T07:08:44;10.70;;;9.47;;
33858;SDS011;20156;47.486;12.074;2023-04-03T07:11:11;10.43;;;9.40;;
33858;SDS011;20156;47.486;12.074;2023-04-03T07:13:38;10.07;;;9.00;;
33858;SDS011;20156;47.486;12.074;2023-04-03T07:16:04;10.97;;;9.67;;
33858;SDS011;20156;47.486;12.074;2023-04-03T07:18:30;9.87;;;8.83;;
33858;SDS011;20156;47.486;12.074;2023-04-03T07:20:56;11.33;;;9.53;;
33858;SDS011;20156;47.486;12.074;2023-04-03T07:23:22;9.97;;;8.93;;
33858;SDS011;20156;47.486;12.074;2023-04-03T07:25:48;10.67;;;9.57;;
33858;SDS011;20156;47.486;12.074;2023-04-03T07:28:16;12.57;;;10.30;;
33858;SDS011;20156;47.486;12.074;2023-04-03T07:30:46;10.27;;;9.17;;
33858;SDS011;20156;47.486;12.074;2023-04-03T07:33:14;11.10;;;9.03;;
33858;SDS011;20156;47.486;12.074;2023-04-03T07:35:40;12.13;;;10.20;;
33858;SDS011;20156;47.486;12.074;2023-04-03T07:38:07;10.10;;;9.07;;
33858;SDS011;20156;47.486;12.074;2023-04-03T07:40:33;11.43;;;9.77;;
33858;SDS011;20156;47.486;12.074;2023-04-03T07:42:59;10.40;;;9.30;;
33858;SDS011;20156;47.486;12.074;2023-04-03T07:45:25;9.40;;;8.47;;
33858;SDS011;20156;47.486;12.074;2023-04-03T07:47:51;10.40;;;9.30;;
33858;SDS011;20156;47.486;12.074;2023-04-03T07:50:18;10.00;;;9.00;;
33858;SDS011;20156;47.486;12.074;2023-04-03T07:52:43;10.00;;;9.00;;
33858;SDS011;20156;47.486;12.074;2023-04-03T07:55:10;9.17;;;8.17;;
33858;SDS011;20156;47.486;12.074;2023-04-03T07:57:36;11.70;;;8.97;;
33858;SDS011;20156;47.486;12.074;2023-04-03T08:00:05;10.20;;;9.10;;
33858;SDS011;20156;47.486;12.074;2023-04-03T08:02:31;9.13;;;8.13;;
33858;SDS011;20156;47.486;12.074;2023-04-03T08:04:57;9.93;;;8.67;;
33858;SDS011;20156;47.486;12.074;2023-04-03T08:07:23;14.37;;;9.47;;
33858;SDS011;20156;47.486;12.074;2023-04-03T08:09:50;14.30;;;10.07;;
33858;SDS011;20156;47.486;12.074;2023-04-03T08:12:15;11.37;;;8.50;;
33858;SDS011;20156;47.486;12.074;2023-04-03T08:14:41;9.47;;;8.57;;
33858;SDS011;20156;47.486;12.074;2023-04-03T08:17:06;9.57;;;7.90;;
33858;SDS011;20156;47.486;12.074;2023-04-03T08:19:36;11.50;;;9.20;;
33858;SDS011;20156;47.486;12.074;2023-04-03T08:22:05;37.07;;;20.47;;
33858;SDS011;20156;47.486;12.074;2023-04-03T08:24:34;9.17;;;8.23;;
33858;SDS011;20156;47.486;12.074;2023-04-03T08:26:59;8.77;;;7.33;;
33858;SDS011;20156;47.486;12.074;2023-04-03T08:29:26;8.63;;;7.37;;
33858;SDS011;20156;47.486;12.074;2023-04-03T08:31:51;8.83;;;7.40;;
33858;SDS011;20156;47.486;12.074;2023-04-03T08:34:17;9.53;;;8.10;;
33858;SDS011;20156;47.486;12.074;2023-04-03T08:36:42;11.17;;;8.47;;
33858;SDS011;20156;47.486;12.074;2023-04-03T08:39:09;92.40;;;36.17;;
33858;SDS011;20156;47.486;12.074;2023-04-03T08:41:35;23.37;;;11.73;;
33858;SDS011;20156;47.486;12.074;2023-04-03T08:50:01;7.60;;;6.77;;
33858;SDS011;20156;47.486;12.074;2023-04-03T08:55:05;13.43;;;10.63;;
33858;SDS011;20156;47.486;12.074;2023-04-03T08:57:42;9.20;;;8.30;;
33858;SDS011;20156;47.486;12.074;2023-04-03T09:02:46;6.57;;;5.97;;
33858;SDS011;20156;47.486;12.074;2023-04-03T09:08:22;5.00;;;4.53;;
33858;SDS011;20156;47.486;12.074;2023-04-03T09:14:02;6.10;;;5.10;;
33858;SDS011;20156;47.486;12.074;2023-04-03T09:16:54;6.43;;;5.90;;
33858;SDS011;20156;47.486;12.074;2023-04-03T09:21:50;6.23;;;5.63;;
33858;SDS011;20156;47.486;12.074;2023-04-03T09:24:16;6.67;;;5.70;;
33858;SDS011;20156;47.486;12.074;2023-04-03T09:27:01;5.80;;;5.27;;
33858;SDS011;20156;47.486;12.074;2023-04-03T09:29:30;5.73;;;5.20;;
33858;SDS011;20156;47.486;12.074;2023-04-03T09:31:59;4.77;;;4.37;;
33858;SDS011;20156;47.486;12.074;2023-04-03T09:34:27;5.57;;;5.03;;
33858;SDS011;20156;47.486;12.074;2023-04-03T09:36:57;4.70;;;4.30;;
33858;SDS011;20156;47.486;12.074;2023-04-03T09:39:30;4.40;;;4.00;;
33858;SDS011;20156;47.486;12.074;2023-04-03T09:42:00;5.40;;;4.90;;
33858;SDS011;20156;47.486;12.074;2023-04-03T09:44:31;4.27;;;3.87;;
33858;SDS011;20156;47.486;12.074;2023-04-03T09:46:57;5.10;;;4.70;;
33858;SDS011;20156;47.486;12.074;2023-04-03T09:49:23;5.07;;;4.60;;
33858;SDS011;20156;47.486;12.074;2023-04-03T09:51:49;4.77;;;4.37;;
33858;SDS011;20156;47.486;12.074;2023-04-03T09:54:24;4.60;;;4.20;;
33858;SDS011;20156;47.486;12.074;2023-04-03T09:57:07;4.83;;;4.43;;
33858;SDS011;20156;47.486;12.074;2023-04-03T09:59:46;5.00;;;4.53;;
33858;SDS011;20156;47.486;12.074;2023-04-03T10:02:39;7.13;;;4.67;;
33858;SDS011;20156;47.486;12.074;2023-04-03T10:05:25;5.03;;;4.53;;
33858;SDS011;20156;47.486;12.074;2023-04-03T10:10:41;4.73;;;4.30;;
33858;SDS011;20156;47.486;12.074;2023-04-03T10:13:10;4.37;;;3.97;;
33858;SDS011;20156;47.486;12.074;2023-04-03T10:15:44;4.30;;;3.87;;
33858;SDS011;20156;47.486;12.074;2023-04-03T10:20:59;3.83;;;3.53;;
33858;SDS011;20156;47.486;12.074;2023-04-03T10:23:45;3.30;;;3.00;;
33858;SDS011;20156;47.486;12.074;2023-04-03T10:26:45;3.90;;;3.60;;
33858;SDS011;20156;47.486;12.074;2023-04-03T10:29:31;4.23;;;3.30;;
33858;SDS011;20156;47.486;12.074;2023-04-03T10:32:11;4.03;;;3.30;;
33858;SDS011;20156;47.486;12.074;2023-04-03T10:34:57;3.73;;;3.43;;
33858;SDS011;20156;47.486;12.074;2023-04-03T10:37:43;5.27;;;3.50;;
33858;SDS011;20156;47.486;12.074;2023-04-03T10:40:17;3.57;;;3.27;;
33858;SDS011;20156;47.486;12.074;2023-04-03T10:51:44;3.50;;;3.20;;
33858;SDS011;20156;47.486;12.074;2023-04-03T10:54:26;4.27;;;3.83;;
33858;SDS011;20156;47.486;12.074;2023-04-03T10:56:57;3.70;;;3.40;;
33858;SDS011;20156;47.486;12.074;2023-04-03T11:05:02;3.20;;;2.90;;
33858;SDS011;20156;47.486;12.074;2023-04-03T11:07:37;3.60;;;3.30;;
33858;SDS011;20156;47.486;12.074;2023-04-03T11:10:13;4.80;;;4.07;;
33858;SDS011;20156;47.486;12.074;2023-04-03T11:12:47;4.47;;;3.00;;
33858;SDS011;20156;47.486;12.074;2023-04-03T11:15:17;3.30;;;3.00;;
33858;SDS011;20156;47.486;12.074;2023-04-03T11:17:55;3.57;;;3.27;;
33858;SDS011;20156;47.486;12.074;2023-04-03T11:23:06;3.30;;;3.00;;
33858;SDS011;20156;47.486;12.074;2023-04-03T11:25:37;3.30;;;3.00;;
33858;SDS011;20156;47.486;12.074;2023-04-03T11:28:09;3.60;;;3.03;;
33858;SDS011;20156;47.486;12.074;2023-04-03T11:30:40;4.67;;;4.10;;
33858;SDS011;20156;47.486;12.074;2023-04-03T11:33:14;5.03;;;3.97;;
33858;SDS011;20156;47.486;12.074;2023-04-03T11:35:52;3.20;;;2.90;;
33858;SDS011;20156;47.486;12.074;2023-04-03T11:38:26;3.60;;;3.30;;
33858;SDS011;20156;47.486;12.074;2023-04-03T11:41:01;3.60;;;3.30;;
33858;SDS011;20156;47.486;12.074;2023-04-03T11:43:30;6.00;;;4.10;;
33858;SDS011;20156;47.486;12.074;2023-04-03T11:46:00;3.40;;;3.10;;
33858;SDS011;20156;47.486;12.074;2023-04-03T11:50:57;3.50;;;3.20;;
33858;SDS011;20156;47.486;12.074;2023-04-03T11:53:33;4.13;;;3.73;;
33858;SDS011;20156;47.486;12.074;2023-04-03T12:01:45;3.40;;;3.10;;
33858;SDS011;20156;47.486;12.074;2023-04-03T12:04:18;2.83;;;2.63;;
33858;SDS011;20156;47.486;12.074;2023-04-03T12:11:56;3.80;;;3.50;;
33858;SDS011;20156;47.486;12.074;2023-04-03T12:14:24;3.40;;;3.10;;
33858;SDS011;20156;47.486;12.074;2023-04-03T12:16:51;3.50;;;3.20;;
33858;SDS011;20156;47.486;12.074;2023-04-03T12:19:27;2.80;;;2.60;;
33858;SDS011;20156;47.486;12.074;2023-04-03T12:24:29;3.27;;;3.03;;
33858;SDS011;20156;47.486;12.074;2023-04-03T12:46:03;3.40;;;3.10;;
33858;SDS011;20156;47.486;12.074;2023-04-03T12:48:47;3.30;;;3.00;;
33858;SDS011;20156;47.486;12.074;2023-04-03T12:54:13;5.20;;;4.13;;
33858;SDS011;20156;47.486;12.074;2023-04-03T12:56:43;5.33;;;3.90;;
33858;SDS011;20156;47.486;12.074;2023-04-03T13:01:57;3.30;;;3.00;;
33858;SDS011;20156;47.486;12.074;2023-04-03T13:04:27;3.70;;;3.27;;
33858;SDS011;20156;47.486;12.074;2023-04-03T13:06:54;3.43;;;3.13;;
33858;SDS011;20156;47.486;12.074;2023-04-03T13:11:48;3.20;;;2.63;;
33858;SDS011;20156;47.486;12.074;2023-04-03T13:14:16;3.33;;;3.03;;
33858;SDS011;20156;47.486;12.074;2023-04-03T13:16:54;4.10;;;3.07;;
33858;SDS011;20156;47.486;12.074;2023-04-03T13:19:27;6.27;;;4.30;;
33858;SDS011;20156;47.486;12.074;2023-04-03T13:22:01;4.53;;;3.63;;
33858;SDS011;20156;47.486;12.074;2023-04-03T13:24:30;5.13;;;3.50;;
33858;SDS011;20156;47.486;12.074;2023-04-03T13:27:00;3.47;;;3.17;;
33858;SDS011;20156;47.486;12.074;2023-04-03T13:29:30;5.37;;;3.33;;
33858;SDS011;20156;47.486;12.074;2023-04-03T13:32:01;3.50;;;3.10;;
33858;SDS011;20156;47.486;12.074;2023-04-03T13:34:38;3.10;;;2.80;;
33858;SDS011;20156;47.486;12.074;2023-04-03T13:37:23;3.10;;;2.80;;
33858;SDS011;20156;47.486;12.074;2023-04-03T13:40:24;3.23;;;3.00;;
33858;SDS011;20156;47.486;12.074;2023-04-03T13:42:42;3.37;;;3.07;;
33858;SDS011;20156;47.486;12.074;2023-04-03T13:47:53;3.47;;;3.13;;
33858;SDS011;20156;47.486;12.074;2023-04-03T13:51:41;3.43;;;3.13;;
33858;SDS011;20156;47.486;12.074;2023-04-03T13:53:41;4.20;;;3.40;;
33858;SDS011;20156;47.486;12.074;2023-04-03T13:56:19;3.90;;;3.23;;
33858;SDS011;20156;47.486;12.074;2023-04-03T14:04:23;3.90;;;3.50;;
33858;SDS011;20156;47.486;12.074;2023-04-03T14:06:51;3.97;;;3.53;;
33858;SDS011;20156;47.486;12.074;2023-04-03T14:09:17;4.10;;;3.67;;
33858;SDS011;20156;47.486;12.074;2023-04-03T14:11:44;3.70;;;3.33;;
33858;SDS011;20156;47.486;12.074;2023-04-03T14:14:12;4.13;;;3.70;;
33858;SDS011;20156;47.486;12.074;2023-04-03T14:16:53;7.30;;;5.30;;
33858;SDS011;20156;47.486;12.074;2023-04-03T14:19:24;3.67;;;3.37;;
33858;SDS011;20156;47.486;12.074;2023-04-03T14:21:55;4.10;;;3.70;;
33858;SDS011;20156;47.486;12.074;2023-04-03T14:24:21;4.27;;;3.80;;
33858;SDS011;20156;47.486;12.074;2023-04-03T14:26:48;4.23;;;3.83;;
33858;SDS011;20156;47.486;12.074;2023-04-03T14:29:15;3.83;;;3.43;;
33858;SDS011;20156;47.486;12.074;2023-04-03T14:31:42;3.63;;;3.33;;
33858;SDS011;20156;47.486;12.074;2023-04-03T14:34:09;4.07;;;3.70;;
33858;SDS011;20156;47.486;12.074;2023-04-03T14:36:36;3.90;;;3.60;;
33858;SDS011;20156;47.486;12.074;2023-04-03T14:39:03;4.73;;;3.40;;
33858;SDS011;20156;47.486;12.074;2023-04-03T14:41:31;4.50;;;3.50;;
33858;SDS011;20156;47.486;12.074;2023-04-03T14:43:56;3.93;;;3.20;;
33858;SDS011;20156;47.486;12.074;2023-04-03T14:48:48;4.23;;;3.67;;
33858;SDS011;20156;47.486;12.074;2023-04-03T14:51:14;4.00;;;3.60;;
33858;SDS011;20156;47.486;12.074;2023-04-03T14:53:41;3.60;;;3.30;;
33858;SDS011;20156;47.486;12.074;2023-04-03T14:56:27;4.03;;;3.63;;
33858;SDS011;20156;47.486;12.074;2023-04-03T14:58:58;3.80;;;3.50;;
33858;SDS011;20156;47.486;12.074;2023-04-03T15:01:26;5.50;;;5.00;;
33858;SDS011;20156;47.486;12.074;2023-04-03T15:03:53;5.20;;;4.57;;
33858;SDS011;20156;47.486;12.074;2023-04-03T15:06:18;6.13;;;5.60;;
33858;SDS011;20156;47.486;12.074;2023-04-03T15:08:45;4.67;;;3.80;;
33858;SDS011;20156;47.486;12.074;2023-04-03T15:11:12;6.20;;;3.93;;
33858;SDS011;20156;47.486;12.074;2023-04-03T15:13:38;4.67;;;3.80;;
33858;SDS011;20156;47.486;12.074;2023-04-03T15:16:04;4.60;;;4.10;;
33858;SDS011;20156;47.486;12.074;2023-04-03T15:18:32;4.30;;;3.90;;
33858;SDS011;20156;47.486;12.074;2023-04-03T15:21:02;4.73;;;4.07;;
33858;SDS011;20156;47.486;12.074;2023-04-03T15:23:28;5.17;;;3.50;;
33858;SDS011;20156;47.486;12.074;2023-04-03T15:25:54;5.30;;;4.00;;
33858;SDS011;20156;47.486;12.074;2023-04-03T15:28:30;4.10;;;3.70;;
33858;SDS011;20156;47.486;12.074;2023-04-03T15:31:04;4.27;;;3.87;;
33858;SDS011;20156;47.486;12.074;2023-04-03T15:33:31;5.80;;;3.87;;
33858;SDS011;20156;47.486;12.074;2023-04-03T15:35:58;4.47;;;3.57;;
33858;SDS011;20156;47.486;12.074;2023-04-03T15:38:23;3.90;;;3.57;;
33858;SDS011;20156;47.486;12.074;2023-04-03T15:40:49;4.80;;;3.77;;
33858;SDS011;20156;47.486;12.074;2023-04-03T15:43:15;4.33;;;3.70;;
33858;SDS011;20156;47.486;12.074;2023-04-03T15:45:41;4.40;;;3.83;;
33858;SDS011;20156;47.486;12.074;2023-04-03T15:48:06;5.90;;;4.13;;
33858;SDS011;20156;47.486;12.074;2023-04-03T15:50:33;3.80;;;3.40;;
33858;SDS011;20156;47.486;12.074;2023-04-03T15:52:59;8.47;;;5.43;;
33858;SDS011;20156;47.486;12.074;2023-04-03T15:55:27;4.40;;;4.00;;
33858;SDS011;20156;47.486;12.074;2023-04-03T15:57:55;4.20;;;3.77;;
33858;SDS011;20156;47.486;12.074;2023-04-03T16:00:21;9.63;;;7.70;;
33858;SDS011;20156;47.486;12.074;2023-04-03T16:02:48;7.27;;;5.20;;
33858;SDS011;20156;47.486;12.074;2023-04-03T16:05:17;4.73;;;3.90;;
33858;SDS011;20156;47.486;12.074;2023-04-03T16:07:43;5.00;;;4.47;;
33858;SDS011;20156;47.486;12.074;2023-04-03T16:10:10;6.13;;;4.37;;
33858;SDS011;20156;47.486;12.074;2023-04-03T16:12:38;5.40;;;3.93;;
33858;SDS011;20156;47.486;12.074;2023-04-03T16:15:04;3.83;;;3.43;;
33858;SDS011;20156;47.486;12.074;2023-04-03T16:17:31;11.17;;;5.33;;
33858;SDS011;20156;47.486;12.074;2023-04-03T16:19:57;5.07;;;3.77;;